createdAt,value
2023-03-15T00:00:15.360Z,1.80
2023-03-15T00:01:19.809Z,1.80
2023-03-15T00:02:22.167Z,0.80
2023-03-15T00:03:24.448Z,1.00
2023-03-15T00:04:28.604Z,1.70
2023-03-15T00:05:31.721Z,1.00
2023-03-15T00:06:38.185Z,1.30
2023-03-15T00:07:41.393Z,1.00
2023-03-15T00:08:43.667Z,1.20
2023-03-15T00:09:46.643Z,2.00
2023-03-15T00:10:50.716Z,1.80
2023-03-15T00:11:53.038Z,2.00
2023-03-15T00:12:56.574Z,1.20
2023-03-15T00:13:59.521Z,1.00
2023-03-15T00:15:04.426Z,1.20
2023-03-15T00:16:07.217Z,1.30
2023-03-15T00:17:09.460Z,2.30
2023-03-15T00:18:17.934Z,1.40
2023-03-15T00:19:24.736Z,1.30
2023-03-15T00:20:29.771Z,1.20
2023-03-15T00:21:31.924Z,1.40
2023-03-15T00:22:37.589Z,2.00
2023-03-15T00:23:39.725Z,1.70
2023-03-15T00:24:42.962Z,1.00
2023-03-15T00:25:50.948Z,1.00
2023-03-15T00:26:53.272Z,1.20
2023-03-15T00:27:55.418Z,0.00
2023-03-15T00:28:57.631Z,1.50
2023-03-15T00:30:01.095Z,1.00
2023-03-15T00:32:23.611Z,2.00
2023-03-15T00:33:26.317Z,1.20
2023-03-15T00:34:32.490Z,1.00
2023-03-15T00:35:40.494Z,1.50
2023-03-15T00:36:42.688Z,1.80
2023-03-15T00:37:46.054Z,2.00
2023-03-15T00:38:51.644Z,1.30
2023-03-15T00:39:53.952Z,1.90
2023-03-15T00:40:57.866Z,1.50
2023-03-15T00:42:00.026Z,1.70
2023-03-15T00:43:02.319Z,1.50
2023-03-15T00:44:06.074Z,2.20
2023-03-15T00:45:08.598Z,1.50
2023-03-15T00:46:17.584Z,1.20
2023-03-15T00:47:19.806Z,1.50
2023-03-15T00:48:23.755Z,1.60
2023-03-15T00:49:25.860Z,1.50
2023-03-15T00:50:32.873Z,1.40
2023-03-15T00:51:36.434Z,1.80
2023-03-15T00:52:40.232Z,1.50
2023-03-15T00:53:47.540Z,1.80
2023-03-15T00:54:55.230Z,0.40
2023-03-15T00:55:58.053Z,2.40
2023-03-15T00:57:02.753Z,1.50
2023-03-15T00:58:05.302Z,2.00
2023-03-15T00:59:07.612Z,1.90
2023-03-15T01:00:14.644Z,1.50
2023-03-15T01:01:23.386Z,1.30
2023-03-15T01:02:25.592Z,2.10
2023-03-15T01:03:28.690Z,1.20
2023-03-15T01:04:31.896Z,1.10
2023-03-15T01:05:35.854Z,1.80
2023-03-15T01:06:38.164Z,2.10
2023-03-15T01:07:40.803Z,1.80
2023-03-15T01:08:43.616Z,1.80
2023-03-15T01:09:48.456Z,1.30
2023-03-15T01:10:51.443Z,1.60
2023-03-15T01:11:54.482Z,1.90
2023-03-15T01:12:56.792Z,2.00
2023-03-15T01:14:03.026Z,1.80
2023-03-15T01:15:08.894Z,1.70
2023-03-15T01:16:15.413Z,2.40
2023-03-15T01:17:23.286Z,1.50
2023-03-15T01:18:26.197Z,1.30
2023-03-15T01:19:30.440Z,1.73
2023-03-15T01:20:38.249Z,1.20
2023-03-15T01:21:42.974Z,2.20
2023-03-15T01:22:51.828Z,1.80
2023-03-15T01:23:56.050Z,1.60
2023-03-15T01:25:01.121Z,1.50
2023-03-15T01:26:13.832Z,1.80
2023-03-15T01:27:22.246Z,1.60
2023-03-15T01:28:25.873Z,1.40
2023-03-15T01:29:29.167Z,2.20
2023-03-15T01:30:33.445Z,1.30
2023-03-15T01:31:35.999Z,1.60
2023-03-15T01:32:38.207Z,1.70
2023-03-15T01:33:40.500Z,0.20
2023-03-15T01:34:43.188Z,1.20
2023-03-15T01:35:45.718Z,1.82
2023-03-15T01:36:50.973Z,1.70
2023-03-15T01:37:53.530Z,1.70
2023-03-15T01:38:55.981Z,1.90
2023-03-15T01:40:08.337Z,2.00
2023-03-15T01:41:14.495Z,1.50
2023-03-15T01:42:18.121Z,2.50
2023-03-15T01:43:22.385Z,1.90
2023-03-15T01:44:29.461Z,1.00
2023-03-15T01:46:01.393Z,1.90
2023-03-15T01:47:05.486Z,1.70
2023-03-15T01:48:09.781Z,2.40
2023-03-15T01:49:23.929Z,2.00
2023-03-15T01:50:26.330Z,1.80
2023-03-15T01:51:37.208Z,1.70
2023-03-15T01:52:41.098Z,2.00
2023-03-15T01:53:49.280Z,1.50
2023-03-15T01:54:53.855Z,2.80
2023-03-15T01:55:57.601Z,2.40
2023-03-15T01:57:04.307Z,1.60
2023-03-15T01:58:07.627Z,2.60
2023-03-15T01:59:18.064Z,2.00
2023-03-15T02:00:20.992Z,1.90
2023-03-15T02:01:28.443Z,2.00
2023-03-15T02:02:31.237Z,2.70
2023-03-15T02:03:36.401Z,1.80
2023-03-15T02:05:56.933Z,2.50
2023-03-15T02:07:02.774Z,1.90
2023-03-15T02:08:08.896Z,1.80
2023-03-15T02:09:14.983Z,1.20
2023-03-15T02:11:42.062Z,2.20
2023-03-15T02:12:49.978Z,3.00
2023-03-15T02:13:54.219Z,2.80
2023-03-15T02:14:58.728Z,2.00
2023-03-15T02:16:02.316Z,1.60
2023-03-15T02:17:06.797Z,2.00
2023-03-15T02:18:09.617Z,1.50
2023-03-15T02:20:35.558Z,2.40
2023-03-15T02:23:14.017Z,2.80
2023-03-15T02:24:25.949Z,1.90
2023-03-15T02:25:44.042Z,2.50
2023-03-15T02:26:54.799Z,2.40
2023-03-15T02:27:57.914Z,2.50
2023-03-15T02:29:00.329Z,2.27
2023-03-15T02:30:04.066Z,2.00
2023-03-15T02:31:06.721Z,2.20
2023-03-15T02:32:09.007Z,1.80
2023-03-15T02:33:14.815Z,2.00
2023-03-15T02:34:17.427Z,2.30
2023-03-15T02:36:36.124Z,2.80
2023-03-15T02:37:38.448Z,2.30
2023-03-15T02:38:40.950Z,2.60
2023-03-15T02:39:43.117Z,2.00
2023-03-15T02:40:47.760Z,2.00
2023-03-15T02:41:57.657Z,2.70
2023-03-15T02:44:24.412Z,2.90
2023-03-15T02:45:28.903Z,2.80
2023-03-15T02:46:32.300Z,1.80
2023-03-15T02:47:34.407Z,2.73
2023-03-15T02:48:38.706Z,1.70
2023-03-15T02:49:43.375Z,2.20
2023-03-15T02:50:45.622Z,1.80
2023-03-15T02:51:47.649Z,3.10
2023-03-15T02:52:49.824Z,2.50
2023-03-15T02:53:51.870Z,2.60
2023-03-15T02:54:56.008Z,2.27
2023-03-15T02:55:58.442Z,2.50
2023-03-15T02:57:02.015Z,2.20
2023-03-15T02:58:06.476Z,2.40
2023-03-15T02:59:08.694Z,2.60
2023-03-15T03:00:12.792Z,2.90
2023-03-15T03:01:15.993Z,2.27
2023-03-15T03:02:18.477Z,2.30
2023-03-15T03:03:20.768Z,3.10
2023-03-15T03:04:22.943Z,3.10
2023-03-15T03:05:25.612Z,2.10
2023-03-15T03:06:27.767Z,2.80
2023-03-15T03:07:30.538Z,2.50
2023-03-15T03:08:34.876Z,2.60
2023-03-15T03:09:37.241Z,2.70
2023-03-15T03:10:39.602Z,1.00
2023-03-15T03:11:42.216Z,2.30
2023-03-15T03:12:44.359Z,2.90
2023-03-15T03:13:46.638Z,2.90
2023-03-15T03:14:48.772Z,2.20
2023-03-15T03:15:52.796Z,2.50
2023-03-15T03:16:56.035Z,2.80
2023-03-15T03:17:58.445Z,2.70
2023-03-15T03:19:00.868Z,2.70
2023-03-15T03:20:09.827Z,3.00
2023-03-15T03:21:14.352Z,2.40
2023-03-15T03:22:19.590Z,2.30
2023-03-15T03:23:24.758Z,3.20
2023-03-15T03:24:27.091Z,3.20
2023-03-15T03:25:29.999Z,3.00
2023-03-15T03:26:32.573Z,3.10
2023-03-15T03:27:34.724Z,1.40
2023-03-15T03:28:36.997Z,2.90
2023-03-15T03:29:40.258Z,3.80
2023-03-15T03:30:44.934Z,2.80
2023-03-15T03:31:49.380Z,3.60
2023-03-15T03:32:52.209Z,2.40
2023-03-15T03:33:56.022Z,3.50
2023-03-15T03:34:59.452Z,3.00
2023-03-15T03:36:01.993Z,3.18
2023-03-15T03:37:05.287Z,3.00
2023-03-15T03:38:10.111Z,3.70
2023-03-15T03:39:33.962Z,3.20
2023-03-15T03:40:37.597Z,3.40
2023-03-15T03:41:40.240Z,3.00
2023-03-15T03:42:43.014Z,3.10
2023-03-15T03:43:45.687Z,3.20
2023-03-15T03:44:48.702Z,3.82
2023-03-15T03:45:54.008Z,2.91
2023-03-15T03:46:56.320Z,3.00
2023-03-15T03:47:59.266Z,3.60
2023-03-15T03:49:01.634Z,4.30
2023-03-15T03:50:04.244Z,3.70
2023-03-15T03:51:06.416Z,2.60
2023-03-15T03:52:08.635Z,3.80
2023-03-15T03:53:11.651Z,3.64
2023-03-15T03:54:17.113Z,4.20
2023-03-15T03:55:19.270Z,3.90
2023-03-15T03:56:21.628Z,3.50
2023-03-15T03:57:23.807Z,4.00
2023-03-15T03:58:26.060Z,3.90
2023-03-15T03:59:32.974Z,4.20
2023-03-15T04:00:36.953Z,3.80
2023-03-15T04:01:40.206Z,3.64
2023-03-15T04:02:43.127Z,4.40
2023-03-15T04:03:47.355Z,5.20
2023-03-15T04:04:51.934Z,3.60
2023-03-15T04:05:58.242Z,3.80
2023-03-15T04:07:01.680Z,3.90
2023-03-15T04:08:08.619Z,3.80
2023-03-15T04:09:14.224Z,3.90
2023-03-15T04:10:18.478Z,4.20
2023-03-15T04:11:22.573Z,4.40
2023-03-15T04:12:26.672Z,4.50
2023-03-15T04:13:30.706Z,3.30
2023-03-15T04:14:34.804Z,4.10
2023-03-15T04:15:38.859Z,4.10
2023-03-15T04:16:41.564Z,3.60
2023-03-15T04:17:45.524Z,3.60
2023-03-15T04:18:48.089Z,3.20
2023-03-15T04:19:50.634Z,3.90
2023-03-15T04:20:54.935Z,4.00
2023-03-15T04:21:58.386Z,4.00
2023-03-15T04:24:43.747Z,4.70
2023-03-15T04:27:05.882Z,4.50
2023-03-15T04:28:26.730Z,4.00
2023-03-15T04:29:30.798Z,3.50
2023-03-15T04:30:34.684Z,4.10
2023-03-15T04:31:44.344Z,4.20
2023-03-15T04:33:07.997Z,4.20
2023-03-15T04:34:21.045Z,2.60
2023-03-15T04:35:35.460Z,3.60
2023-03-15T04:36:56.822Z,3.30
2023-03-15T04:38:04.415Z,4.10
2023-03-15T04:39:09.315Z,4.30
2023-03-15T04:40:26.313Z,3.20
2023-03-15T04:41:33.815Z,3.80
2023-03-15T04:42:37.798Z,4.00
2023-03-15T04:43:47.636Z,3.60
2023-03-15T04:44:54.826Z,3.50
2023-03-15T04:46:13.012Z,4.00
2023-03-15T04:47:22.904Z,4.60
2023-03-15T04:48:38.721Z,4.30
2023-03-15T04:49:42.746Z,3.90
2023-03-15T04:50:47.370Z,4.00
2023-03-15T04:51:54.304Z,3.80
2023-03-15T04:53:02.567Z,4.40
2023-03-15T04:54:19.988Z,2.10
2023-03-15T04:55:29.817Z,3.50
2023-03-15T04:56:34.310Z,4.40
2023-03-15T04:57:47.525Z,4.00
2023-03-15T05:00:11.230Z,5.60
2023-03-15T05:01:16.012Z,4.40
2023-03-15T05:02:26.069Z,4.80
2023-03-15T05:03:32.899Z,5.40
2023-03-15T05:04:36.933Z,5.10
2023-03-15T05:06:57.480Z,5.30
2023-03-15T05:08:13.809Z,5.30
2023-03-15T05:10:38.629Z,6.50
2023-03-15T05:11:59.347Z,5.80
2023-03-15T05:13:12.477Z,5.50
2023-03-15T05:14:16.499Z,5.40
2023-03-15T05:15:32.799Z,5.00
2023-03-15T05:16:37.080Z,5.70
2023-03-15T05:17:53.703Z,5.70
2023-03-15T05:19:00.515Z,5.80
2023-03-15T05:20:15.603Z,6.10
2023-03-15T05:21:19.606Z,6.50
2023-03-15T05:22:42.708Z,6.30
2023-03-15T05:23:44.812Z,5.36
2023-03-15T05:24:53.903Z,5.80
2023-03-15T05:26:05.478Z,5.00
2023-03-15T05:27:27.761Z,5.50
2023-03-15T05:28:46.031Z,5.90
2023-03-15T05:29:54.038Z,2.70
2023-03-15T05:31:15.512Z,5.90
2023-03-15T05:32:25.432Z,4.80
2023-03-15T05:34:47.285Z,5.50
2023-03-15T05:36:10.378Z,5.50
2023-03-15T05:37:21.672Z,5.20
2023-03-15T05:38:32.841Z,5.90
2023-03-15T05:39:37.502Z,5.60
2023-03-15T05:40:45.423Z,5.80
2023-03-15T05:43:08.185Z,6.70
2023-03-15T05:44:27.693Z,4.60
2023-03-15T05:45:43.616Z,6.90
2023-03-15T05:47:04.567Z,6.70
2023-03-15T05:48:15.233Z,4.70
2023-03-15T05:49:22.364Z,6.20
2023-03-15T05:50:26.629Z,7.70
2023-03-15T05:51:31.966Z,6.10
2023-03-15T05:52:54.708Z,5.70
2023-03-15T05:54:16.823Z,6.30
2023-03-15T05:55:21.839Z,5.60
2023-03-15T05:57:54.191Z,8.00
2023-03-15T05:58:58.893Z,6.00
2023-03-15T06:01:23.377Z,5.80
2023-03-15T09:44:40.642Z,3.60
2023-03-15T09:46:05.387Z,5.00
2023-03-15T09:47:36.236Z,4.00
2023-03-15T09:49:13.075Z,4.90
2023-03-15T09:50:23.363Z,4.00
2023-03-15T09:51:41.764Z,5.80
2023-03-15T09:53:01.671Z,4.70
2023-03-15T09:55:37.018Z,6.80
2023-03-15T09:56:47.546Z,6.10
2023-03-15T09:58:03.077Z,5.60
2023-03-15T09:59:10.497Z,5.70
2023-03-15T10:01:41.468Z,8.20
2023-03-15T10:02:51.789Z,7.40
2023-03-15T10:05:28.894Z,8.60
2023-03-15T10:06:32.259Z,6.40
2023-03-15T10:07:37.512Z,7.60
2023-03-15T10:08:40.559Z,7.10
2023-03-15T10:11:12.682Z,8.70
2023-03-15T10:12:25.724Z,6.70
2023-03-15T10:13:48.370Z,7.30
2023-03-15T10:15:28.360Z,7.00
2023-03-15T10:16:50.993Z,5.50
2023-03-15T10:18:06.465Z,5.60
2023-03-15T10:19:37.963Z,5.30
2023-03-15T10:22:06.597Z,5.70
2023-03-15T10:23:22.326Z,6.80
2023-03-15T10:25:00.737Z,5.50
2023-03-15T10:26:06.186Z,4.80
2023-03-15T10:27:21.841Z,5.40
2023-03-15T10:28:28.183Z,5.50
2023-03-15T10:29:30.609Z,5.50
2023-03-15T10:30:36.796Z,5.50
2023-03-15T10:31:44.797Z,4.80
2023-03-15T10:34:03.975Z,5.60
2023-03-15T10:35:15.445Z,6.10
2023-03-15T10:36:22.044Z,5.40
2023-03-15T10:37:26.082Z,5.50
2023-03-15T10:38:29.586Z,5.80
2023-03-15T10:39:33.503Z,5.90
2023-03-15T10:40:46.423Z,6.90
2023-03-15T10:41:52.359Z,6.10
2023-03-15T10:42:59.079Z,5.20
2023-03-15T10:45:31.785Z,6.20
2023-03-15T10:46:40.345Z,5.60
2023-03-15T10:47:50.431Z,4.55
2023-03-15T10:49:01.690Z,4.20
2023-03-15T10:50:05.081Z,5.30
2023-03-15T10:51:23.209Z,5.30
2023-03-15T10:52:39.599Z,4.90
2023-03-15T10:53:59.312Z,5.00
2023-03-15T10:55:19.251Z,5.10
2023-03-15T10:56:31.216Z,4.20
2023-03-15T10:57:39.130Z,4.60
2023-03-15T10:58:45.219Z,4.90
2023-03-15T11:00:02.345Z,5.00
2023-03-15T11:01:08.361Z,4.50
2023-03-15T11:03:29.770Z,5.30
2023-03-15T11:04:34.379Z,3.80
2023-03-15T11:05:49.145Z,4.00
2023-03-15T11:08:20.131Z,5.30
2023-03-15T11:09:23.892Z,5.40
2023-03-15T11:10:30.215Z,4.00
2023-03-15T11:13:20.832Z,4.20
2023-03-15T11:16:04.697Z,4.60
2023-03-15T11:17:10.717Z,4.80
2023-03-15T11:18:22.448Z,4.80
2023-03-15T11:19:31.832Z,4.80
2023-03-15T11:20:39.010Z,1.60
2023-03-15T11:21:43.357Z,4.90
2023-03-15T11:22:53.417Z,4.20
2023-03-15T11:23:57.171Z,4.20
2023-03-15T11:24:59.857Z,4.30
2023-03-15T11:26:02.609Z,5.00
2023-03-15T11:27:12.929Z,4.00
2023-03-15T11:28:22.984Z,4.30
2023-03-15T11:29:34.896Z,3.90
2023-03-15T11:30:40.507Z,3.60
2023-03-15T11:31:44.526Z,5.70
2023-03-15T11:32:48.351Z,5.00
2023-03-15T11:34:06.953Z,4.50
2023-03-15T11:36:43.106Z,5.00
2023-03-15T11:38:06.180Z,4.20
2023-03-15T11:39:09.308Z,4.20
2023-03-15T11:40:21.737Z,4.10
2023-03-15T11:43:08.352Z,4.60
2023-03-15T11:44:21.636Z,3.70
2023-03-15T11:45:32.532Z,4.30
2023-03-15T11:48:23.393Z,5.20
2023-03-15T11:49:35.782Z,4.20
2023-03-15T11:50:40.332Z,4.20
2023-03-15T11:51:46.720Z,4.20
2023-03-15T11:52:51.710Z,4.50
2023-03-15T11:55:29.758Z,4.80
2023-03-15T11:56:49.833Z,6.00
2023-03-15T11:59:21.375Z,5.60
2023-03-15T12:00:36.240Z,5.90
2023-03-15T12:03:28.891Z,5.60
2023-03-15T12:06:19.282Z,6.90
2023-03-15T12:07:25.585Z,6.10
2023-03-15T12:08:48.720Z,5.10
2023-03-15T12:10:04.359Z,5.40
2023-03-15T12:11:13.558Z,5.40
2023-03-15T12:12:31.258Z,4.90
2023-03-15T12:13:37.132Z,5.00
2023-03-15T12:14:39.877Z,5.70
2023-03-15T12:15:44.625Z,4.27
2023-03-15T12:16:54.019Z,4.90
2023-03-15T12:18:04.304Z,4.70
2023-03-15T12:19:18.956Z,5.20
2023-03-15T12:20:40.498Z,4.70
2023-03-15T12:21:59.609Z,3.90
2023-03-15T12:24:35.955Z,6.10
2023-03-15T12:25:56.037Z,6.10
2023-03-15T12:27:07.818Z,5.70
2023-03-15T12:28:30.634Z,5.70
2023-03-15T12:29:35.118Z,5.40
2023-03-15T12:30:46.426Z,7.20
2023-03-15T12:31:59.279Z,6.00
2023-03-15T12:33:04.569Z,6.80
2023-03-15T12:34:14.407Z,7.20
2023-03-15T12:35:22.795Z,5.10
2023-03-15T12:36:37.793Z,7.30
2023-03-15T12:37:46.825Z,7.40
2023-03-15T12:40:21.141Z,8.70
2023-03-15T12:43:11.681Z,8.40
2023-03-15T12:44:39.709Z,7.20
2023-03-15T12:45:44.295Z,8.30
2023-03-15T12:48:07.695Z,8.70
2023-03-15T12:49:26.795Z,7.60
2023-03-15T12:50:52.295Z,6.40
2023-03-15T12:51:59.777Z,6.20
2023-03-15T12:53:30.969Z,7.10
2023-03-15T12:54:58.853Z,6.20
2023-03-15T12:56:30.728Z,5.90
2023-03-15T12:57:48.566Z,6.40
2023-03-15T12:58:55.986Z,5.20
2023-03-15T13:00:00.683Z,5.50
2023-03-15T13:01:05.854Z,6.30
2023-03-15T13:03:52.837Z,6.60
2023-03-15T13:07:05.643Z,7.20
2023-03-15T13:08:20.243Z,5.80
2023-03-15T13:10:00.204Z,5.50
2023-03-15T13:11:15.333Z,4.20
2023-03-15T13:12:24.547Z,5.40
2023-03-15T13:15:23.108Z,6.40
2023-03-15T13:18:12.269Z,7.10
2023-03-15T13:19:27.789Z,6.60
2023-03-15T13:21:06.345Z,6.20
2023-03-15T13:22:30.333Z,5.90
2023-03-15T13:23:33.822Z,5.40
2023-03-15T13:24:52.707Z,5.70
2023-03-15T13:26:26.345Z,5.70
2023-03-15T13:27:48.810Z,7.40
2023-03-15T13:29:08.145Z,6.00
2023-03-15T13:31:40.984Z,7.20
2023-03-15T13:32:43.999Z,7.20
2023-03-15T13:33:48.485Z,5.00
2023-03-15T13:34:54.078Z,6.70
2023-03-15T13:36:01.617Z,8.20
2023-03-15T13:37:08.179Z,8.40
2023-03-15T13:38:44.759Z,7.40
2023-03-15T13:39:59.402Z,7.10
2023-03-15T13:41:04.464Z,7.30
2023-03-15T13:42:18.767Z,7.00
2023-03-15T13:43:28.922Z,6.70
2023-03-15T13:44:34.028Z,6.70
2023-03-15T13:45:41.132Z,6.80
2023-03-15T13:46:50.123Z,6.80
2023-03-15T13:47:53.644Z,6.90
2023-03-15T13:48:56.164Z,6.80
2023-03-15T13:49:58.957Z,7.70
2023-03-15T13:51:08.472Z,8.18
2023-03-15T13:52:12.462Z,7.90
2023-03-15T13:53:22.902Z,9.10
2023-03-15T13:54:28.911Z,8.70
2023-03-15T13:55:37.055Z,9.20
2023-03-15T13:58:08.626Z,12.00
2023-03-15T13:59:12.306Z,9.30
2023-03-15T14:00:19.394Z,9.70
2023-03-15T14:01:23.755Z,10.10
2023-03-15T14:02:44.943Z,9.00
2023-03-15T14:03:50.824Z,11.00
2023-03-15T14:04:59.661Z,11.20
2023-03-15T14:06:03.453Z,10.20
2023-03-15T14:07:31.389Z,10.60
2023-03-15T14:08:37.629Z,10.30
2023-03-15T14:09:40.142Z,11.20
2023-03-15T14:10:43.659Z,10.90
2023-03-15T14:11:46.367Z,10.00
2023-03-15T14:12:54.940Z,11.70
2023-03-15T14:14:00.435Z,12.20
2023-03-15T14:15:27.296Z,11.20
2023-03-15T14:17:03.236Z,10.90
2023-03-15T14:17:57.436Z,10.70
2023-03-15T14:20:43.191Z,12.00
2023-03-15T14:21:54.680Z,11.00
2023-03-15T14:23:04.730Z,10.30
2023-03-15T14:24:11.788Z,10.80
2023-03-15T14:25:21.647Z,11.20
2023-03-15T14:26:30.528Z,10.70
2023-03-15T14:27:33.259Z,11.50
2023-03-15T14:28:37.118Z,10.70
2023-03-15T14:31:13.521Z,11.00
2023-03-15T14:32:28.240Z,10.70
2023-03-15T14:33:34.330Z,11.30
2023-03-15T14:34:46.339Z,10.50
2023-03-15T14:35:52.589Z,10.80
2023-03-15T14:36:59.302Z,13.00
2023-03-15T14:38:26.932Z,11.00
2023-03-15T14:39:33.489Z,10.80
2023-03-15T14:40:37.724Z,8.80
2023-03-15T14:41:42.183Z,11.50
2023-03-15T14:42:50.411Z,4.70
2023-03-15T14:43:55.492Z,12.10
2023-03-15T14:44:58.302Z,11.60
2023-03-15T14:46:03.168Z,12.00
2023-03-15T14:47:16.542Z,10.80
2023-03-15T14:48:25.070Z,11.20
2023-03-15T14:49:28.505Z,11.50
2023-03-15T14:50:38.970Z,10.20
2023-03-15T14:51:42.560Z,10.70
2023-03-15T14:52:52.379Z,11.50
2023-03-15T14:53:58.104Z,11.80
2023-03-15T14:55:00.801Z,10.50
2023-03-15T14:56:03.462Z,11.45
2023-03-15T14:57:06.377Z,11.00
2023-03-15T14:58:16.790Z,9.90
2023-03-15T15:00:39.251Z,10.20
2023-03-15T15:01:46.997Z,12.10
2023-03-15T15:02:54.949Z,11.30
2023-03-15T15:04:02.886Z,10.90
2023-03-15T15:05:30.934Z,10.30
2023-03-15T15:06:35.470Z,11.10
2023-03-15T15:07:44.188Z,11.40
2023-03-15T15:08:48.999Z,10.20
2023-03-15T15:11:12.265Z,10.40
2023-03-15T15:12:22.442Z,9.80
2023-03-15T15:13:27.928Z,10.10
2023-03-15T15:14:41.511Z,3.50
2023-03-15T15:15:55.011Z,8.80
2023-03-15T15:16:57.949Z,8.40
2023-03-15T15:17:56.200Z,8.90
2023-03-15T15:18:58.464Z,9.60
2023-03-15T15:20:01.341Z,9.40
2023-03-15T15:21:20.702Z,10.00
2023-03-15T15:22:23.154Z,9.30
2023-03-15T15:23:32.363Z,9.20
2023-03-15T15:24:36.249Z,9.10
2023-03-15T15:25:38.709Z,8.30
2023-03-15T15:26:44.798Z,9.20
2023-03-15T15:27:50.975Z,8.00
2023-03-15T15:29:00.402Z,8.70
2023-03-15T15:30:05.317Z,8.70
2023-03-15T15:31:13.030Z,9.20
2023-03-15T15:33:36.782Z,10.80
2023-03-15T15:34:42.181Z,7.10
2023-03-15T15:35:45.881Z,9.80
2023-03-15T15:36:49.084Z,9.60
2023-03-15T15:37:53.495Z,8.70
2023-03-15T15:38:59.871Z,10.30
2023-03-15T15:40:12.528Z,9.10
2023-03-15T15:42:35.809Z,9.30
2023-03-15T15:43:42.868Z,9.10
2023-03-15T15:44:47.681Z,9.30
2023-03-15T15:45:52.720Z,9.00
2023-03-15T15:46:58.073Z,7.00
2023-03-15T15:48:01.250Z,8.80
2023-03-15T15:49:10.114Z,9.00
2023-03-15T15:50:20.219Z,9.10
2023-03-15T15:51:31.342Z,8.60
2023-03-15T15:53:52.025Z,11.60
2023-03-15T15:56:11.983Z,11.50
2023-03-15T15:57:15.541Z,12.20
2023-03-15T15:58:20.481Z,10.80
2023-03-15T15:59:25.009Z,10.30
2023-03-15T16:00:28.482Z,10.70
2023-03-15T16:01:32.264Z,10.40
2023-03-15T16:02:38.680Z,11.00
2023-03-15T16:03:44.039Z,10.50
2023-03-15T16:04:48.300Z,11.60
2023-03-15T16:05:53.495Z,12.40
2023-03-15T16:09:37.418Z,12.50
2023-03-15T16:10:43.176Z,10.40
2023-03-15T16:11:50.718Z,10.30
2023-03-15T16:12:57.335Z,11.00
2023-03-15T16:15:25.713Z,11.50
2023-03-15T16:16:31.864Z,10.00
2023-03-15T16:17:35.324Z,9.30
2023-03-15T16:18:44.658Z,10.20
2023-03-15T16:19:54.443Z,9.90
2023-03-15T16:21:02.157Z,9.70
2023-03-15T16:22:04.717Z,10.40
2023-03-15T16:23:17.523Z,8.90
2023-03-15T16:24:28.705Z,10.10
2023-03-15T16:25:34.822Z,9.30
2023-03-15T16:26:43.280Z,8.90
2023-03-15T16:27:52.484Z,9.00
2023-03-15T16:28:56.035Z,9.50
2023-03-15T16:29:59.570Z,9.18
2023-03-15T16:31:02.675Z,11.40
2023-03-15T16:32:17.916Z,9.50
2023-03-15T16:33:18.027Z,8.80
2023-03-15T16:34:20.477Z,10.60
2023-03-15T16:35:34.776Z,10.20
2023-03-15T16:36:42.530Z,9.70
2023-03-15T16:37:45.667Z,10.00
2023-03-15T16:38:55.329Z,9.60
2023-03-15T16:40:00.291Z,10.00
2023-03-15T16:41:08.387Z,10.20
2023-03-15T16:42:15.816Z,10.20
2023-03-15T16:43:20.590Z,10.50
2023-03-15T16:44:26.112Z,10.70
2023-03-15T16:45:29.936Z,10.70
2023-03-15T16:48:03.430Z,11.50
2023-03-15T16:49:17.208Z,10.90
2023-03-15T16:50:24.624Z,11.30
2023-03-15T16:51:27.886Z,9.70
2023-03-15T16:52:35.222Z,7.40
2023-03-15T16:53:40.400Z,10.80
2023-03-15T16:54:58.673Z,8.20
2023-03-15T16:57:24.552Z,12.50
2023-03-15T16:58:32.447Z,10.70
2023-03-15T16:59:34.746Z,11.00
2023-03-15T17:00:37.248Z,11.60
2023-03-15T17:01:40.355Z,11.50
2023-03-15T17:04:02.921Z,11.90
2023-03-15T17:05:07.759Z,11.90
2023-03-15T17:06:19.740Z,11.90
2023-03-15T17:07:34.405Z,11.50
2023-03-15T17:08:40.887Z,12.40
2023-03-15T17:09:46.763Z,10.80
2023-03-15T17:10:50.851Z,11.20
2023-03-15T17:11:56.132Z,12.30
2023-03-15T17:13:02.351Z,11.00
2023-03-15T17:15:45.658Z,13.40
2023-03-15T17:16:50.037Z,13.40
2023-03-15T17:18:00.454Z,13.40
2023-03-15T17:19:14.622Z,12.40
2023-03-15T17:20:19.226Z,11.40
2023-03-15T17:21:24.309Z,12.64
2023-03-15T17:22:30.430Z,12.90
2023-03-15T17:23:33.261Z,12.90
2023-03-15T17:24:38.634Z,10.90
2023-03-15T17:25:41.800Z,14.10
2023-03-15T17:26:50.759Z,12.60
2023-03-15T17:27:59.570Z,12.40
2023-03-15T17:29:04.169Z,13.30
2023-03-15T17:30:34.121Z,10.60
2023-03-15T17:31:39.481Z,13.40
2023-03-15T17:32:42.782Z,13.10
2023-03-15T17:33:46.296Z,13.80
2023-03-15T17:34:49.282Z,13.45
2023-03-15T17:35:53.221Z,12.80
2023-03-15T17:36:59.706Z,13.60
2023-03-15T17:38:06.247Z,14.30
2023-03-15T17:39:24.129Z,13.50
2023-03-15T17:40:32.041Z,11.90
2023-03-15T17:41:38.416Z,14.20
2023-03-15T17:42:43.374Z,13.00
2023-03-15T17:43:46.241Z,13.50
2023-03-15T17:44:51.644Z,14.10
2023-03-15T17:46:00.283Z,12.60
2023-03-15T17:47:04.980Z,14.70
2023-03-15T17:48:08.643Z,14.50
2023-03-15T17:49:15.947Z,15.10
2023-03-15T17:51:34.681Z,16.00
2023-03-15T17:52:39.522Z,15.10
2023-03-15T17:53:44.849Z,14.90
2023-03-15T17:54:49.416Z,15.10
2023-03-15T17:55:55.004Z,11.60
2023-03-15T17:57:02.228Z,16.00
2023-03-15T17:58:14.999Z,17.00
2023-03-15T18:00:33.762Z,18.60
2023-03-15T18:01:40.255Z,18.10
2023-03-15T18:02:54.971Z,16.60
2023-03-15T18:03:52.957Z,17.90
2023-03-15T18:17:15.126Z,15.30
2023-03-15T18:29:34.448Z,14.00
2023-03-15T18:43:43.085Z,14.75
2023-03-15T18:52:43.069Z,15.80
2023-03-15T19:05:55.709Z,8.60
2023-03-15T19:06:59.591Z,15.70
2023-03-15T19:08:04.845Z,14.40
2023-03-15T19:09:14.990Z,15.10
2023-03-15T19:10:22.621Z,14.90
2023-03-15T19:11:26.805Z,15.10
2023-03-15T19:12:34.919Z,16.70
2023-03-15T19:15:15.768Z,16.10
2023-03-15T19:16:22.081Z,14.70
2023-03-15T19:17:26.443Z,15.90
2023-03-15T19:18:29.149Z,15.50
2023-03-15T19:19:39.717Z,16.36
2023-03-15T19:20:46.654Z,16.60
2023-03-15T19:21:51.741Z,14.30
2023-03-15T19:23:01.032Z,15.60
2023-03-15T19:24:04.266Z,16.60
2023-03-15T19:25:12.694Z,15.70
2023-03-15T19:26:21.698Z,16.80
2023-03-15T19:27:32.851Z,19.90
2023-03-15T19:28:36.943Z,9.00
2023-03-15T19:29:41.309Z,20.60
2023-03-15T19:30:44.006Z,20.30
2023-03-15T19:31:46.326Z,19.50
2023-03-15T19:32:50.759Z,20.00
2023-03-15T19:33:54.420Z,20.55
2023-03-15T19:35:00.887Z,20.90
2023-03-15T19:36:10.155Z,19.90
2023-03-15T19:37:13.012Z,20.40
2023-03-15T19:38:16.144Z,20.60
2023-03-15T19:39:25.571Z,19.20
2023-03-15T19:40:29.488Z,16.80
2023-03-15T19:41:31.617Z,16.90
2023-03-15T19:43:54.086Z,17.50
2023-03-15T19:45:01.842Z,17.40
2023-03-15T19:46:08.293Z,1.20
2023-03-15T19:47:16.122Z,15.70
2023-03-15T19:48:22.762Z,16.70
2023-03-15T19:49:32.371Z,15.30
2023-03-15T19:50:36.270Z,15.70
2023-03-15T19:51:39.873Z,16.50
2023-03-15T19:52:45.551Z,15.36
2023-03-15T19:53:49.206Z,15.80
2023-03-15T19:54:51.516Z,14.64
2023-03-15T19:55:59.850Z,15.90
2023-03-15T19:57:01.995Z,16.20
2023-03-15T19:58:05.709Z,15.10
2023-03-15T19:59:09.903Z,15.40
2023-03-15T20:00:22.413Z,15.00
2023-03-15T20:01:28.164Z,14.10
2023-03-15T20:02:33.242Z,15.70
2023-03-15T20:03:36.686Z,15.20
2023-03-15T20:04:46.117Z,15.20
2023-03-15T20:05:54.246Z,15.50
2023-03-15T20:07:00.592Z,14.70
2023-03-15T20:08:08.378Z,14.10
2023-03-15T20:09:11.124Z,13.20
2023-03-15T20:10:14.738Z,15.36
2023-03-15T20:11:20.052Z,14.20
2023-03-15T20:12:23.443Z,14.20
2023-03-15T20:13:32.912Z,16.00
2023-03-15T20:14:38.413Z,15.70
2023-03-15T20:15:41.110Z,14.70
2023-03-15T20:16:50.118Z,14.20
2023-03-15T20:17:53.206Z,15.70
2023-03-15T20:18:58.997Z,14.20
2023-03-15T20:20:01.105Z,16.20
2023-03-15T20:21:06.826Z,13.10
2023-03-15T20:22:10.085Z,15.00
2023-03-15T20:23:16.464Z,15.00
2023-03-15T20:24:19.241Z,14.80
2023-03-15T20:25:22.035Z,15.80
2023-03-15T20:26:25.723Z,15.40
2023-03-15T20:27:28.358Z,15.40
2023-03-15T20:28:30.961Z,13.60
2023-03-15T20:29:35.385Z,14.90
2023-03-15T20:30:44.201Z,15.10
2023-03-15T20:31:46.553Z,14.70
2023-03-15T20:32:50.133Z,14.50
2023-03-15T20:33:57.694Z,15.30
2023-03-15T20:35:01.701Z,14.30
2023-03-15T20:36:11.161Z,15.20
2023-03-15T20:37:16.816Z,16.20
2023-03-15T20:38:19.132Z,16.10
2023-03-15T20:39:21.414Z,15.20
2023-03-15T20:40:25.581Z,15.20
2023-03-15T20:41:28.021Z,15.00
2023-03-15T20:42:31.069Z,15.60
2023-03-15T20:43:33.587Z,14.73
2023-03-15T20:44:36.252Z,15.20
2023-03-15T20:45:38.715Z,14.20
2023-03-15T20:46:42.790Z,14.50
2023-03-15T20:47:45.339Z,14.70
2023-03-15T20:48:52.695Z,14.30
2023-03-15T20:49:55.125Z,13.60
2023-03-15T20:50:58.047Z,15.20
2023-03-15T20:52:00.380Z,15.73
2023-03-15T20:53:02.555Z,14.20
2023-03-15T20:54:06.034Z,15.40
2023-03-15T20:55:11.892Z,14.40
2023-03-15T20:56:15.160Z,14.60
2023-03-15T20:57:17.321Z,15.30